KAAT

Alturas Municipal Airport

Alturas, California, USA
METAR KAAT 092155Z AUTO 18008KT 10SM CLR 03/M04 A3026 RMK AO2 SLP265 T00281044
Observed Flight Rules
Dec-9 @ 21:55 UTC (51 minutes ago) Visual Flight Rules
Wind Visibility Clouds
180° at 8 knots 10 miles
  • Clear skies
Temperatures Readings
Current 3°C / 37°F
Dewpoint -4°C / 25°F
Humidity 60%
Altimeter 30.26" Hg
Pressure 1026.5 hPa
Elevation 1331
METAR KAAT 092155Z AUTO 18008KT 10SM CLR 03/M04 A3026 RMK AO2 SLP265 T00281044
Observed Flight Rules
Dec-9 @ 21:55 UTC
(51 minutes ago)
VFR
Wind Visibility
180° at 8 knots 10 miles
Clouds
  • Clear skies
Temperature Dewpoint
3°C / 37°F -4°C / 25°F
Humidity Altimeter Pressure
60% 30.26" Hg 1026.5 hPa